Benavides, Texas
Current Conditions -  °F | °C
As of 12:15 PM on Wednesday 28 Jan 2015 (Local Time) from KHBV Reporting Station
Clear Clear  
Wind Chill: 78°   Ceiling: Unl
Heat Index: 78°   Visibility: 10mi
Dew Point: 35°   Wind: 9mph
Humidity: 21%   Direction: 180°S
Pressure: 30.17"   Gusts: 16mph
Location:  27.6°N, 98.41°W
Report Text: KHBV 281815Z AUTO 18008G14KT 10SM CLR 26/02 A3017 RMK AO2 T02550015
Loading
Personal Weather Stations






























Interactive Weather Map New forecast layout! Learn more

10-Day Weather Forecast

Advertisements
Track Severe Weather on mobile